Time;durP1;ratioP1;P1;durP2;ratioP2;P2;SDS_P1;SDS_P2;PMS_P1;PMS_P2;Temp;Humidity;BMP_temperature;BMP_pressure;BME280_temperature;BME280_humidity;BME280_pressure;Samples;Min_cycle;Max_cycle;Signal;HPM_P1;HPM_P2
2022/10/02 00:00:16;;;;;;;5.43;2.00;;;10.90;99.90;;;;;;5029628;28;20306;-80
2022/10/02 00:02:48;;;;;;;5.73;2.30;;;10.90;99.90;;;;;;5045750;28;20235;-81
2022/10/02 00:05:19;;;;;;;4.67;2.20;;;10.90;99.90;;;;;;5047741;28;20211;-80
2022/10/02 00:07:52;;;;;;;3.83;1.90;;;11.00;99.90;;;;;;5036755;28;20208;-80
2022/10/02 00:10:23;;;;;;;5.27;2.17;;;11.00;99.90;;;;;;5046636;28;20188;-81
2022/10/02 00:12:56;;;;;;;4.13;1.90;;;11.00;99.90;;;;;;5044160;28;20207;-80
2022/10/02 00:15:28;;;;;;;6.53;2.90;;;11.00;99.90;;;;;;5027719;28;20224;-77
2022/10/02 00:17:59;;;;;;;4.20;2.27;;;11.00;99.90;;;;;;5028065;28;20201;-77
2022/10/02 00:20:33;;;;;;;7.33;2.30;;;11.10;99.90;;;;;;5040825;28;20192;-76
2022/10/02 00:23:06;;;;;;;4.80;1.90;;;11.10;99.90;;;;;;5045476;28;20225;-75
2022/10/02 00:25:40;;;;;;;4.27;2.13;;;11.10;99.90;;;;;;5047361;28;20204;-77
2022/10/02 00:28:17;;;;;;;8.00;2.03;;;11.10;99.90;;;;;;5048118;28;20203;-78
2022/10/02 00:30:59;;;;;;;6.47;2.30;;;11.10;99.90;;;;;;5046229;28;20188;-75
2022/10/02 00:33:33;;;;;;;7.97;2.33;;;11.10;99.90;;;;;;5030724;28;20205;-75
2022/10/02 00:36:12;;;;;;;10.17;2.60;;;11.10;99.90;;;;;;5044279;28;20220;-76
2022/10/02 00:38:47;;;;;;;6.47;2.37;;;11.10;99.90;;;;;;5034404;28;20204;-79
2022/10/02 00:41:25;;;;;;;4.80;2.07;;;11.20;99.90;;;;;;5031465;28;20192;-81
2022/10/02 00:44:07;;;;;;;8.17;2.30;;;11.10;99.90;;;;;;5044998;28;20219;-81
2022/10/02 00:46:45;;;;;;;5.40;2.17;;;11.10;99.90;;;;;;5049039;28;20192;-80
2022/10/02 00:49:34;;;;;;;7.53;2.23;;;11.10;99.90;;;;;;5044605;28;20667;-77
2022/10/02 00:52:13;;;;;;;7.13;2.87;;;11.10;99.90;;;;;;5048028;28;20204;-77
2022/10/02 00:54:54;;;;;;;6.03;2.30;;;11.00;99.90;;;;;;5031269;28;20193;-76
2022/10/02 00:57:31;;;;;;;7.30;2.00;;;11.00;99.90;;;;;;5039790;28;20200;-80
2022/10/02 01:00:06;;;;;;;8.70;2.53;;;11.00;99.90;;;;;;5036478;28;20228;-79
2022/10/02 01:02:58;;;;;;;5.73;2.30;;;11.00;99.90;;;;;;5038212;28;22027;-77
2022/10/02 01:05:29;;;;;;;10.37;2.90;;;10.90;99.90;;;;;;5051161;28;20203;-78
2022/10/02 01:07:56;;;;;;;8.10;2.43;;;10.90;99.90;;;;;;5037021;28;20241;-82
2022/10/02 01:10:24;;;;;;;7.77;2.20;;;10.90;99.90;;;;;;5030848;28;20216;-82
2022/10/02 01:12:52;;;;;;;7.50;2.00;;;10.90;99.90;;;;;;5034430;28;20211;-81
2022/10/02 01:15:20;;;;;;;6.80;2.20;;;10.90;99.90;;;;;;5048672;28;20227;-81
2022/10/02 01:17:50;;;;;;;5.63;2.07;;;10.80;99.90;;;;;;5044710;28;20197;-82
2022/10/02 01:20:21;;;;;;;6.37;1.80;;;10.80;99.90;;;;;;5048354;28;20196;-82
2022/10/02 01:22:54;;;;;;;7.23;2.43;;;10.80;99.90;;;;;;5057760;28;20659;-82
2022/10/02 01:25:22;;;;;;;6.87;1.93;;;10.80;99.90;;;;;;5045480;28;20737;-82
2022/10/02 01:27:52;;;;;;;6.20;2.40;;;10.70;99.90;;;;;;5045444;28;20216;-82
2022/10/02 01:30:20;;;;;;;8.30;2.40;;;10.70;99.90;;;;;;5048414;28;20207;-82
2022/10/02 01:32:50;;;;;;;6.37;2.13;;;10.80;99.90;;;;;;5030856;28;20235;-81
2022/10/02 01:35:19;;;;;;;4.30;2.20;;;10.70;99.90;;;;;;5041042;28;20234;-82
2022/10/02 01:37:46;;;;;;;7.57;2.10;;;10.70;99.90;;;;;;5049406;28;20692;-82
2022/10/02 01:40:25;;;;;;;4.37;2.13;;;10.70;99.90;;;;;;5050129;28;20330;-82
2022/10/02 01:42:52;;;;;;;5.60;2.27;;;10.60;99.90;;;;;;5049670;28;20937;-82
2022/10/02 01:45:27;;;;;;;4.87;2.20;;;10.70;99.90;;;;;;5049582;28;20210;-82
2022/10/02 01:48:02;;;;;;;5.57;1.93;;;10.60;99.90;;;;;;5048582;28;20188;-81
2022/10/02 01:50:40;;;;;;;6.93;2.20;;;10.60;99.90;;;;;;5032549;28;20204;-80
2022/10/02 01:53:14;;;;;;;9.20;2.57;;;10.60;99.90;;;;;;5045699;28;20200;-80
2022/10/02 01:55:50;;;;;;;5.43;2.47;;;10.60;99.90;;;;;;5047497;28;20487;-80
2022/10/02 01:58:24;;;;;;;8.80;2.40;;;10.60;99.90;;;;;;5046728;28;20270;-81
2022/10/02 02:01:01;;;;;;;7.47;2.30;;;10.60;99.90;;;;;;5050266;28;20216;-74
2022/10/02 02:03:39;;;;;;;7.00;2.30;;;10.50;99.90;;;;;;5049604;28;20227;-74
2022/10/02 02:06:13;;;;;;;7.10;1.90;;;10.50;99.90;;;;;;5046869;28;20207;-74
2022/10/02 02:08:47;;;;;;;6.10;2.73;;;10.50;99.90;;;;;;5049577;28;20200;-78
2022/10/02 02:11:17;;;;;;;7.23;2.30;;;10.50;99.90;;;;;;5049183;28;20192;-77
2022/10/02 02:13:48;;;;;;;4.50;1.93;;;10.50;99.90;;;;;;5040733;28;20207;-77
2022/10/02 02:16:23;;;;;;;6.57;2.30;;;10.50;99.90;;;;;;5048399;28;20690;-77
2022/10/02 02:18:56;;;;;;;7.03;2.50;;;10.50;99.90;;;;;;5033223;28;20195;-77
2022/10/02 02:21:32;;;;;;;6.63;2.27;;;10.50;99.90;;;;;;5037105;28;20207;-78
2022/10/02 02:24:03;;;;;;;6.60;2.20;;;10.50;99.90;;;;;;5039391;28;20246;-78
2022/10/02 02:26:32;;;;;;;7.93;2.50;;;10.50;99.90;;;;;;5040042;28;20204;-78
2022/10/02 02:29:02;;;;;;;8.40;2.13;;;10.50;99.90;;;;;;5048928;28;20207;-77
2022/10/02 02:31:33;;;;;;;8.33;2.50;;;10.50;99.90;;;;;;5044692;28;20656;-78
2022/10/02 02:34:06;;;;;;;10.63;2.47;;;10.50;99.90;;;;;;5048957;28;20196;-78
2022/10/02 02:36:36;;;;;;;11.40;2.43;;;10.50;99.90;;;;;;5048500;28;20220;-79
2022/10/02 02:39:07;;;;;;;6.23;1.93;;;10.50;99.90;;;;;;5048514;28;20260;-76
2022/10/02 02:41:41;;;;;;;8.87;2.33;;;10.50;99.90;;;;;;5046254;28;20223;-76
2022/10/02 02:44:13;;;;;;;9.17;2.10;;;10.50;99.90;;;;;;5029044;28;20189;-76
2022/10/02 02:49:28;;;;;;;9.40;2.70;;;10.50;99.90;;;;;;5047627;28;20207;-77
2022/10/02 02:51:59;;;;;;;9.07;2.30;;;10.50;99.90;;;;;;5048530;28;20200;-81
2022/10/02 02:54:30;;;;;;;4.20;2.53;;;10.50;99.90;;;;;;5045733;28;20215;-81
2022/10/02 02:57:03;;;;;;;6.53;2.20;;;10.50;99.90;;;;;;5048031;28;20227;-81
2022/10/02 02:59:33;;;;;;;4.33;2.47;;;10.50;99.90;;;;;;5048081;28;20620;-81
2022/10/02 03:02:00;;;;;;;9.03;2.93;;;10.50;99.90;;;;;;5046735;28;20215;-80
2022/10/02 03:04:27;;;;;;;8.50;2.47;;;10.60;99.90;;;;;;5049019;28;20655;-80
2022/10/02 03:06:58;;;;;;;5.93;2.17;;;10.50;99.90;;;;;;5043832;28;20215;-81
2022/10/02 03:09:28;;;;;;;9.43;2.50;;;10.50;99.90;;;;;;5028909;28;20196;-79
2022/10/02 03:12:10;;;;;;;6.20;2.10;;;10.50;99.90;;;;;;5034661;28;20674;-78
2022/10/02 03:14:50;;;;;;;11.53;2.40;;;10.50;99.90;;;;;;5048256;28;20806;-77
2022/10/02 03:17:29;;;;;;;8.07;2.50;;;10.60;99.90;;;;;;5047101;28;20722;-77
2022/10/02 03:20:04;;;;;;;6.50;2.47;;;10.60;99.90;;;;;;5043151;28;20208;-76
2022/10/02 03:22:45;;;;;;;8.40;2.47;;;10.60;99.90;;;;;;5051916;28;20209;-77
2022/10/02 03:25:15;;;;;;;9.83;2.30;;;10.60;99.90;;;;;;5036980;28;20239;-76
2022/10/02 03:27:49;;;;;;;5.73;2.10;;;10.60;99.90;;;;;;5047730;28;20200;-76
2022/10/02 03:30:19;;;;;;;4.27;1.83;;;10.60;99.90;;;;;;5048497;28;20204;-76
2022/10/02 03:32:50;;;;;;;6.87;2.10;;;10.60;99.90;;;;;;5032847;28;21098;-77
2022/10/02 03:35:17;;;;;;;6.23;2.40;;;10.60;99.90;;;;;;5039830;28;20204;-78
2022/10/02 03:37:49;;;;;;;6.30;1.90;;;10.60;99.90;;;;;;5036941;28;20233;-78
2022/10/02 03:40:16;;;;;;;7.30;2.50;;;10.60;99.90;;;;;;5030062;28;20199;-78
2022/10/02 03:42:44;;;;;;;5.47;2.17;;;10.60;99.90;;;;;;5042583;28;20292;-78
2022/10/02 03:45:11;;;;;;;11.10;2.20;;;10.60;99.90;;;;;;5029489;28;20642;-78
2022/10/02 03:47:37;;;;;;;7.30;2.03;;;10.60;99.90;;;;;;5031976;28;20220;-78
2022/10/02 03:50:05;;;;;;;7.73;2.20;;;10.70;99.90;;;;;;5044294;28;20200;-79
2022/10/02 03:52:34;;;;;;;8.33;2.23;;;10.70;99.90;;;;;;5037633;28;20216;-77
2022/10/02 03:55:03;;;;;;;2.63;1.87;;;10.70;99.90;;;;;;5043177;28;20211;-78
2022/10/02 03:57:33;;;;;;;7.30;1.87;;;10.70;99.90;;;;;;5042874;28;20242;-78
2022/10/02 04:00:06;;;;;;;7.67;2.10;;;10.70;99.90;;;;;;5047862;28;20287;-78
2022/10/02 04:02:38;;;;;;;6.20;2.10;;;10.80;99.90;;;;;;5035253;28;20243;-78
2022/10/02 04:05:15;;;;;;;8.40;1.90;;;10.80;99.90;;;;;;5031578;28;20196;-78
2022/10/02 04:07:45;;;;;;;7.80;2.27;;;10.80;99.90;;;;;;5043905;28;20208;-77
2022/10/02 04:10:29;;;;;;;6.20;2.13;;;10.80;99.90;;;;;;5030250;28;20196;-78
2022/10/02 04:13:04;;;;;;;3.03;1.93;;;10.80;99.90;;;;;;5050152;28;20226;-78
2022/10/02 04:15:45;;;;;;;4.50;1.87;;;10.80;99.90;;;;;;5042368;28;20198;-78
2022/10/02 04:18:21;;;;;;;6.37;2.00;;;10.80;99.90;;;;;;5033586;28;20211;-77
2022/10/02 04:20:51;;;;;;;6.00;2.43;;;10.80;99.90;;;;;;5031815;28;20310;-78
2022/10/02 04:23:23;;;;;;;8.90;1.90;;;10.90;99.90;;;;;;5045162;28;20243;-77
2022/10/02 04:25:53;;;;;;;5.27;1.70;;;10.90;99.90;;;;;;5041248;28;20208;-82
2022/10/02 04:28:24;;;;;;;5.17;1.70;;;10.90;99.90;;;;;;5046974;28;20197;-78
2022/10/02 04:30:53;;;;;;;5.93;1.90;;;10.90;99.90;;;;;;5045711;28;20203;-79
2022/10/02 04:33:24;;;;;;;7.50;1.77;;;11.00;99.90;;;;;;5051307;28;20212;-78
2022/10/02 04:36:03;;;;;;;6.60;2.17;;;11.00;99.90;;;;;;5050376;28;20667;-81
2022/10/02 04:38:48;;;;;;;6.93;2.00;;;11.00;99.90;;;;;;5036993;28;20205;-81
2022/10/02 04:41:32;;;;;;;5.30;1.70;;;11.00;99.90;;;;;;5031466;28;20227;-81
2022/10/02 04:44:08;;;;;;;5.17;1.63;;;11.10;99.90;;;;;;5031395;28;20560;-81
2022/10/02 04:46:57;;;;;;;3.97;1.53;;;11.10;99.90;;;;;;5042574;28;20208;-81
2022/10/02 04:49:43;;;;;;;6.70;2.30;;;11.10;99.90;;;;;;5035070;28;20723;-80
2022/10/02 04:52:27;;;;;;;5.80;1.80;;;11.20;99.90;;;;;;5043505;28;20265;-80
2022/10/02 04:55:36;;;;;;;7.43;1.90;;;11.20;99.90;;;;;;5051119;28;20204;-81
2022/10/02 04:58:30;;;;;;;6.40;2.00;;;11.20;99.90;;;;;;5049864;28;20262;-81
2022/10/02 05:01:05;;;;;;;6.23;2.43;;;11.20;99.90;;;;;;5034797;28;20205;-79
2022/10/02 05:03:48;;;;;;;5.13;1.80;;;11.20;99.90;;;;;;5030922;28;20207;-79
2022/10/02 05:06:28;;;;;;;4.77;1.90;;;11.30;99.90;;;;;;5035013;28;20207;-80
2022/10/02 05:09:10;;;;;;;7.13;1.93;;;11.30;99.90;;;;;;5054714;28;20208;-81
2022/10/02 05:12:03;;;;;;;4.13;1.70;;;11.20;99.90;;;;;;5050227;28;20196;-80
2022/10/02 05:14:45;;;;;;;4.40;1.50;;;11.20;99.90;;;;;;5043244;28;20196;-81
2022/10/02 05:17:27;;;;;;;4.17;1.50;;;11.20;99.90;;;;;;5050308;28;20220;-81
2022/10/02 05:20:11;;;;;;;4.43;1.70;;;11.20;99.90;;;;;;5036643;28;20656;-78
2022/10/02 05:22:55;;;;;;;4.50;1.77;;;11.20;99.90;;;;;;5047607;28;20674;-77
2022/10/02 05:25:52;;;;;;;6.43;2.10;;;11.20;99.90;;;;;;5031477;28;20362;-79
2022/10/02 05:28:47;;;;;;;6.40;1.97;;;11.20;99.90;;;;;;5047099;28;20662;-78
2022/10/02 05:31:27;;;;;;;5.00;1.83;;;11.20;99.90;;;;;;5045881;28;20195;-82
2022/10/02 05:34:07;;;;;;;3.00;1.80;;;11.10;99.90;;;;;;5050739;28;20291;-81
2022/10/02 05:36:59;;;;;;;4.57;1.60;;;11.20;99.90;;;;;;5032510;28;20221;-83
2022/10/02 05:39:30;;;;;;;6.43;1.80;;;11.20;99.90;;;;;;5046616;28;20204;-81
2022/10/02 05:42:04;;;;;;;2.97;1.43;;;11.20;99.90;;;;;;5047629;28;20223;-77
2022/10/02 05:44:37;;;;;;;5.23;1.60;;;11.30;99.90;;;;;;5050710;28;20191;-77
2022/10/02 05:47:11;;;;;;;6.37;1.77;;;11.30;99.90;;;;;;5048689;28;20234;-77
2022/10/02 05:49:40;;;;;;;4.47;2.00;;;11.30;99.90;;;;;;5038694;28;20556;-77
2022/10/02 05:52:13;;;;;;;3.13;1.40;;;11.30;99.90;;;;;;5053379;28;20269;-77
2022/10/02 05:54:45;;;;;;;4.67;1.80;;;11.40;99.90;;;;;;5049575;28;20216;-78
2022/10/02 05:57:19;;;;;;;8.67;1.83;;;11.50;99.90;;;;;;5049151;28;20219;-81
2022/10/02 05:59:56;;;;;;;3.47;1.60;;;11.50;99.90;;;;;;5043138;28;20224;-82
2022/10/02 06:02:29;;;;;;;9.53;2.10;;;11.40;99.90;;;;;;5035355;28;20184;-77
2022/10/02 06:05:02;;;;;;;8.07;2.30;;;11.40;99.90;;;;;;5046125;28;20208;-76
2022/10/02 06:07:32;;;;;;;7.00;2.30;;;11.30;99.90;;;;;;5046891;28;20659;-77
2022/10/02 06:10:05;;;;;;;3.13;2.50;;;11.30;99.90;;;;;;5036882;28;20208;-76
2022/10/02 06:12:38;;;;;;;8.10;2.20;;;11.20;99.90;;;;;;5039834;28;20530;-75
2022/10/02 06:15:14;;;;;;;10.40;2.63;;;11.20;99.90;;;;;;5047142;28;20196;-75
2022/10/02 06:17:44;;;;;;;8.27;2.90;;;11.20;99.90;;;;;;5032131;28;20727;-75
2022/10/02 06:20:20;;;;;;;7.63;2.87;;;11.20;99.90;;;;;;5043212;28;20204;-75
2022/10/02 06:22:53;;;;;;;11.17;2.47;;;11.20;99.90;;;;;;5043764;28;20400;-75
2022/10/02 06:25:27;;;;;;;8.13;2.60;;;11.20;99.90;;;;;;5040607;28;20236;-75
2022/10/02 06:28:00;;;;;;;11.07;2.90;;;11.20;99.90;;;;;;5047762;28;20563;-75
2022/10/02 06:30:30;;;;;;;8.80;2.33;;;11.20;99.90;;;;;;5047427;28;20199;-75
2022/10/02 06:33:01;;;;;;;5.83;2.40;;;11.30;99.90;;;;;;5034080;28;20208;-75
2022/10/02 06:35:38;;;;;;;9.33;2.80;;;11.30;99.90;;;;;;5041350;28;20667;-75
2022/10/02 06:38:18;;;;;;;8.10;2.87;;;11.30;99.90;;;;;;5045727;28;20220;-74
2022/10/02 06:40:50;;;;;;;8.87;3.00;;;11.40;99.90;;;;;;5045446;28;20215;-75
2022/10/02 06:43:42;;;;;;;10.77;2.77;;;11.30;99.90;;;;;;5046969;28;20250;-75
2022/10/02 06:46:22;;;;;;;9.93;3.20;;;11.40;99.90;;;;;;5046590;28;20211;-74
2022/10/02 06:48:57;;;;;;;10.43;3.13;;;11.40;99.90;;;;;;5032193;28;20207;-75
2022/10/02 06:51:34;;;;;;;5.00;2.93;;;11.40;99.90;;;;;;5052369;28;20203;-75
2022/10/02 06:54:19;;;;;;;9.40;3.10;;;11.40;99.90;;;;;;5063363;28;20199;-75
2022/10/02 06:57:02;;;;;;;7.07;3.20;;;11.40;99.90;;;;;;5033503;28;20211;-75
2022/10/02 06:59:45;;;;;;;10.00;3.80;;;11.50;99.90;;;;;;5045337;28;20227;-75
2022/10/02 07:02:24;;;;;;;6.40;3.17;;;11.50;99.90;;;;;;5039063;28;20588;-73
2022/10/02 07:05:09;;;;;;;14.40;3.67;;;11.60;99.90;;;;;;5034070;28;20201;-73
2022/10/02 07:07:49;;;;;;;8.60;3.10;;;11.70;99.90;;;;;;5038660;28;20227;-74
2022/10/02 07:10:34;;;;;;;8.47;3.60;;;11.80;99.90;;;;;;5046589;28;20203;-74
2022/10/02 07:13:37;;;;;;;5.60;3.03;;;11.80;99.90;;;;;;5047667;28;20191;-74
2022/10/02 07:16:19;;;;;;;8.80;3.33;;;11.80;99.90;;;;;;5024708;28;20214;-74
2022/10/02 07:19:15;;;;;;;10.43;3.43;;;11.80;99.90;;;;;;5044317;28;20224;-73
2022/10/02 07:21:49;;;;;;;11.73;3.70;;;11.90;99.90;;;;;;5042348;28;20213;-74
2022/10/02 07:24:29;;;;;;;11.00;3.50;;;12.00;99.90;;;;;;5025960;28;20331;-75
2022/10/02 07:27:03;;;;;;;7.03;3.50;;;12.10;99.90;;;;;;5025978;28;20738;-75
2022/10/02 07:29:49;;;;;;;11.10;3.37;;;12.20;99.90;;;;;;5043616;28;20663;-75
2022/10/02 07:32:37;;;;;;;9.47;3.63;;;12.30;99.90;;;;;;5040292;28;20292;-76
2022/10/02 07:35:15;;;;;;;10.03;3.70;;;12.40;99.90;;;;;;5039322;28;20238;-75
2022/10/02 07:37:50;;;;;;;5.90;2.97;;;12.50;99.90;;;;;;5045563;28;20690;-76
2022/10/02 07:40:31;;;;;;;10.00;3.60;;;12.60;99.90;;;;;;5045896;28;20195;-75
2022/10/02 07:43:19;;;;;;;7.57;3.27;;;12.80;99.90;;;;;;5026205;28;20199;-76
2022/10/02 07:45:52;;;;;;;10.03;4.30;;;12.80;99.90;;;;;;5035925;28;20584;-75
2022/10/02 07:48:40;;;;;;;10.20;3.90;;;12.80;99.90;;;;;;5041256;28;20200;-75
2022/10/02 07:54:15;;;;;;;8.17;4.07;;;12.90;99.90;;;;;;5045236;28;20779;-75
2022/10/02 07:56:44;;;;;;;8.07;3.60;;;13.00;99.90;;;;;;5048389;28;20227;-75
2022/10/02 07:59:16;;;;;;;6.80;3.30;;;13.00;99.90;;;;;;5044898;28;20330;-75
2022/10/02 08:01:44;;;;;;;7.00;3.90;;;13.10;99.90;;;;;;5040936;28;20648;-75
2022/10/02 08:04:16;;;;;;;8.73;4.40;;;13.10;99.90;;;;;;5032571;28;20208;-75
2022/10/02 08:06:45;;;;;;;9.77;3.87;;;13.10;99.90;;;;;;5044456;28;20207;-75
2022/10/02 08:09:18;;;;;;;8.93;4.50;;;13.20;99.90;;;;;;5044917;28;20675;-75
2022/10/02 08:11:50;;;;;;;6.73;3.97;;;13.20;99.90;;;;;;5041556;28;20215;-75
2022/10/02 08:14:24;;;;;;;8.80;3.77;;;13.20;99.90;;;;;;5045047;28;20663;-76
2022/10/02 08:16:53;;;;;;;7.83;3.87;;;13.20;99.90;;;;;;5044644;28;20204;-76
2022/10/02 08:19:26;;;;;;;11.93;4.03;;;13.30;99.90;;;;;;5045382;28;20238;-76
2022/10/02 08:22:00;;;;;;;9.80;4.40;;;13.30;99.90;;;;;;5043852;28;20761;-76
2022/10/02 08:24:32;;;;;;;10.40;4.23;;;13.40;99.90;;;;;;5044218;28;20240;-76
2022/10/02 08:27:02;;;;;;;9.43;4.10;;;13.50;99.90;;;;;;5024903;28;20628;-76
2022/10/02 08:29:39;;;;;;;9.70;4.07;;;13.50;99.90;;;;;;5025138;28;20219;-76
2022/10/02 08:32:10;;;;;;;6.90;3.67;;;13.70;99.90;;;;;;5035622;28;20678;-76
2022/10/02 08:34:37;;;;;;;12.50;5.33;;;13.70;99.90;;;;;;5043604;28;20291;-75
2022/10/02 08:37:30;;;;;;;11.20;5.73;;;13.80;99.90;;;;;;5044601;28;20686;-76
2022/10/02 08:40:19;;;;;;;10.00;4.10;;;13.80;99.90;;;;;;5031836;28;20503;-76
2022/10/02 08:43:13;;;;;;;10.90;3.90;;;13.90;99.90;;;;;;5045711;28;20208;-76
2022/10/02 08:46:20;;;;;;;11.33;4.13;;;14.00;99.90;;;;;;5035806;28;20200;-76
2022/10/02 08:49:39;;;;;;;10.63;4.57;;;14.10;99.90;;;;;;5031261;28;20209;-76
2022/10/02 08:52:40;;;;;;;8.47;4.17;;;14.10;99.90;;;;;;5048339;28;20748;-76
2022/10/02 08:55:43;;;;;;;10.37;4.60;;;14.20;99.90;;;;;;5042778;28;20201;-73
2022/10/02 08:58:30;;;;;;;9.97;4.70;;;14.20;99.90;;;;;;5021864;28;20644;-72
2022/10/02 09:01:09;;;;;;;8.73;4.67;;;14.30;99.90;;;;;;5046669;28;20204;-72
2022/10/02 09:04:12;;;;;;;9.27;3.77;;;14.30;99.90;;;;;;5048256;28;20210;-75
2022/10/02 09:07:16;;;;;;;8.93;4.20;;;14.20;99.90;;;;;;5034199;28;20199;-74
2022/10/02 09:10:22;;;;;;;7.53;4.17;;;14.20;99.90;;;;;;5049260;28;20204;-75
2022/10/02 09:13:11;;;;;;;11.03;4.40;;;14.20;99.90;;;;;;5049012;28;20212;-75
2022/10/02 09:15:45;;;;;;;10.10;4.13;;;14.20;99.90;;;;;;5048795;28;20195;-75
2022/10/02 09:18:18;;;;;;;10.13;3.80;;;14.20;99.90;;;;;;5046400;28;20220;-75
2022/10/02 09:21:14;;;;;;;11.50;4.17;;;14.20;99.90;;;;;;5047396;28;20733;-76
2022/10/02 09:24:11;;;;;;;7.90;4.23;;;14.20;99.90;;;;;;5047557;28;20239;-74
2022/10/02 09:27:07;;;;;;;13.27;4.33;;;14.20;99.90;;;;;;5039412;28;20208;-75
2022/10/02 09:30:04;;;;;;;12.53;4.40;;;14.30;99.90;;;;;;5048232;28;20200;-75
2022/10/02 09:33:22;;;;;;;8.07;3.87;;;14.30;99.90;;;;;;5031787;28;20204;-76
2022/10/02 09:36:31;;;;;;;9.53;3.93;;;14.40;99.90;;;;;;5047363;28;20204;-74
2022/10/02 09:39:46;;;;;;;11.37;4.10;;;14.40;99.90;;;;;;5024115;28;20237;-74
2022/10/02 09:42:47;;;;;;;7.60;4.10;;;14.50;99.90;;;;;;5027948;28;20201;-74
2022/10/02 09:45:47;;;;;;;7.83;3.47;;;14.60;99.90;;;;;;5028313;28;20215;-73
2022/10/02 09:48:46;;;;;;;10.80;3.67;;;14.90;99.90;;;;;;5029254;28;20214;-74
2022/10/02 09:51:47;;;;;;;9.70;3.67;;;15.00;99.90;;;;;;5047993;28;20216;-74
2022/10/02 09:55:09;;;;;;;7.77;3.50;;;15.00;99.90;;;;;;5028451;28;20196;-74
2022/10/02 09:58:15;;;;;;;7.80;3.27;;;15.00;99.90;;;;;;5028376;28;20235;-73
2022/10/02 10:01:05;;;;;;;4.33;3.03;;;14.90;99.90;;;;;;5028224;28;20204;-73
2022/10/02 10:04:01;;;;;;;7.30;3.13;;;14.90;99.90;;;;;;5020695;28;20208;-74
2022/10/02 10:06:50;;;;;;;7.63;2.97;;;14.70;99.90;;;;;;5017061;28;20215;-74
2022/10/02 10:10:00;;;;;;;6.10;3.07;;;14.60;99.90;;;;;;5047787;28;20192;-73
2022/10/02 10:13:05;;;;;;;9.50;3.60;;;14.40;99.90;;;;;;5041336;28;20204;-73
2022/10/02 10:16:10;;;;;;;10.13;3.93;;;14.10;99.90;;;;;;5029646;28;20856;-74
2022/10/02 10:19:05;;;;;;;8.03;3.53;;;13.90;99.90;;;;;;5045481;28;20234;-74
2022/10/02 10:22:07;;;;;;;7.00;3.10;;;13.80;99.90;;;;;;5046023;28;20204;-74
2022/10/02 10:25:27;;;;;;;4.90;2.60;;;13.70;99.90;;;;;;5045486;28;20326;-74
2022/10/02 10:28:44;;;;;;;6.07;2.87;;;13.60;99.90;;;;;;4963955;28;20355;-73
2022/10/02 10:31:59;;;;;;;4.20;2.60;;;13.80;99.90;;;;;;4982574;28;20194;-73
2022/10/02 10:34:57;;;;;;;5.73;3.77;;;14.00;99.90;;;;;;4995418;28;20206;-73
2022/10/02 10:40:37;;;;;;;4.17;2.63;;;14.00;99.90;;;;;;5047264;28;20270;-74
2022/10/02 10:43:36;;;;;;;5.77;2.70;;;14.00;99.90;;;;;;5046759;28;20247;-74
2022/10/02 10:46:20;;;;;;;6.23;2.63;;;14.10;99.90;;;;;;5050402;28;20211;-74
2022/10/02 10:49:08;;;;;;;6.60;3.20;;;14.20;99.90;;;;;;5045812;28;20200;-74
2022/10/02 10:51:44;;;;;;;5.87;3.50;;;14.30;99.90;;;;;;5053884;28;20764;-74
2022/10/02 10:54:39;;;;;;;8.67;3.63;;;14.40;99.90;;;;;;5066871;28;20194;-73
2022/10/02 10:57:16;;;;;;;4.00;3.33;;;14.40;99.90;;;;;;5066108;28;20567;-74
2022/10/02 11:00:10;;;;;;;6.60;3.33;;;14.60;99.90;;;;;;5066405;28;20227;-74
2022/10/02 11:03:13;;;;;;;5.03;3.43;;;14.80;99.90;;;;;;5058500;28;20208;-74
2022/10/02 11:06:14;;;;;;;7.37;3.10;;;14.80;99.90;;;;;;5026306;28;20220;-74
2022/10/02 11:09:29;;;;;;;5.77;3.20;;;14.70;99.90;;;;;;5027140;28;20218;-74
2022/10/02 11:12:20;;;;;;;8.57;2.97;;;14.70;99.90;;;;;;5026464;28;20200;-69
2022/10/02 11:14:59;;;;;;;7.70;3.40;;;14.60;99.90;;;;;;5026203;28;20216;-69
2022/10/02 11:18:03;;;;;;;6.53;3.07;;;14.50;99.90;;;;;;5026433;28;20196;-69
2022/10/02 11:20:56;;;;;;;6.73;3.20;;;14.50;99.90;;;;;;5039545;28;20223;-68
2022/10/02 11:23:53;;;;;;;8.17;3.60;;;14.30;99.90;;;;;;5036045;28;20343;-68
2022/10/02 11:26:31;;;;;;;7.27;3.87;;;14.30;99.90;;;;;;5045415;28;20193;-69
2022/10/02 11:29:33;;;;;;;8.00;4.17;;;14.20;99.90;;;;;;5045917;28;20196;-68
2022/10/02 11:32:26;;;;;;;5.83;3.90;;;14.10;99.90;;;;;;5046091;28;20203;-68
2022/10/02 11:35:22;;;;;;;9.87;4.00;;;14.30;99.90;;;;;;5046156;28;20257;-68
2022/10/02 11:38:10;;;;;;;6.57;3.77;;;14.60;99.90;;;;;;5046091;28;20203;-68
2022/10/02 11:41:00;;;;;;;5.87;3.27;;;14.90;99.90;;;;;;5045794;28;20567;-68
2022/10/02 11:44:00;;;;;;;6.53;3.70;;;15.20;99.90;;;;;;5043529;28;20216;-69
2022/10/02 11:46:47;;;;;;;3.57;2.63;;;15.50;99.90;;;;;;5036059;28;20239;-69
2022/10/02 11:49:57;;;;;;;8.30;3.07;;;15.70;99.90;;;;;;5046059;28;20204;-69
2022/10/02 11:53:01;;;;;;;4.30;2.77;;;16.00;99.90;;;;;;5054637;28;21156;-69
2022/10/02 11:55:45;;;;;;;5.40;3.30;;;16.20;99.90;;;;;;5025608;28;20216;-69
2022/10/02 11:58:25;;;;;;;4.57;2.90;;;16.50;99.90;;;;;;5028709;28;20229;-69
2022/10/02 12:01:13;;;;;;;9.27;3.50;;;16.60;99.90;;;;;;5045984;28;20207;-70
2022/10/02 12:03:57;;;;;;;8.37;2.93;;;16.70;99.90;;;;;;5045391;28;20211;-68
2022/10/02 12:06:36;;;;;;;5.73;3.37;;;16.90;99.90;;;;;;5045755;28;20223;-69
2022/10/02 12:09:11;;;;;;;8.73;3.20;;;17.10;99.90;;;;;;5045960;28;20208;-70
2022/10/02 12:11:48;;;;;;;5.93;3.10;;;17.00;99.90;;;;;;5045649;28;20287;-70
2022/10/02 12:14:34;;;;;;;8.70;3.17;;;17.10;99.90;;;;;;5045665;28;20219;-70
2022/10/02 12:17:17;;;;;;;6.00;2.80;;;17.10;99.90;;;;;;5044993;28;20216;-69
2022/10/02 12:28:37;;;;;;;3.73;2.80;;;16.20;99.90;;;;;;5025301;28;20200;-69
2022/10/02 12:31:14;;;;;;;2.83;2.60;;;16.40;99.90;;;;;;5025006;28;20287;-70
2022/10/02 12:33:47;;;;;;;4.73;2.70;;;16.50;99.90;;;;;;5040495;28;20196;-70
2022/10/02 12:36:26;;;;;;;4.13;3.13;;;16.80;99.90;;;;;;5047227;28;20210;-69
2022/10/02 12:39:04;;;;;;;6.10;3.73;;;17.20;99.90;;;;;;5048687;28;20296;-70
2022/10/02 12:41:58;;;;;;;5.70;2.57;;;17.50;99.90;;;;;;5048655;28;20196;-69
2022/10/02 12:44:56;;;;;;;4.33;2.30;;;17.60;99.90;;;;;;5049699;28;20575;-70
2022/10/02 12:47:48;;;;;;;3.50;2.17;;;17.60;99.90;;;;;;5049449;28;20200;-69
2022/10/02 12:50:23;;;;;;;3.33;1.97;;;17.20;99.90;;;;;;5040904;28;20302;-70
2022/10/02 12:53:34;;;;;;;4.23;2.03;;;16.90;99.90;;;;;;5066147;28;20277;-69
2022/10/02 12:56:33;;;;;;;5.27;2.20;;;16.50;99.90;;;;;;5052138;28;20203;-69
2022/10/02 12:59:09;;;;;;;5.83;2.10;;;16.60;99.90;;;;;;5048244;28;20242;-69
2022/10/02 13:02:10;;;;;;;5.40;2.83;;;16.90;99.90;;;;;;5048661;28;20202;-68
2022/10/02 13:05:16;;;;;;;4.43;2.30;;;17.30;99.90;;;;;;5027969;28;20693;-68
2022/10/02 13:08:10;;;;;;;3.00;1.70;;;17.70;99.90;;;;;;5023150;28;20295;-69
2022/10/02 13:10:42;;;;;;;4.57;2.20;;;17.90;99.90;;;;;;5028027;28;20215;-69
2022/10/02 13:13:34;;;;;;;6.27;2.10;;;18.20;99.90;;;;;;5042365;28;20208;-69
2022/10/02 13:16:08;;;;;;;5.73;1.90;;;18.20;99.90;;;;;;5040153;28;20296;-69
2022/10/02 13:18:57;;;;;;;6.10;1.70;;;18.30;99.90;;;;;;5028173;28;20494;-69
2022/10/02 13:21:34;;;;;;;4.43;1.80;;;18.50;99.90;;;;;;5039752;28;20852;-69
2022/10/02 13:24:16;;;;;;;2.97;1.90;;;18.50;99.90;;;;;;5068222;28;20296;-69
2022/10/02 13:26:50;;;;;;;8.40;1.90;;;18.50;99.90;;;;;;5059646;28;20248;-68
2022/10/02 13:29:34;;;;;;;4.67;1.70;;;18.40;99.90;;;;;;5048240;28;20222;-68
2022/10/02 13:32:30;;;;;;;5.37;1.53;;;18.20;99.90;;;;;;5045953;28;20394;-68
2022/10/02 13:35:18;;;;;;;2.90;1.70;;;18.10;99.90;;;;;;5045178;28;20243;-68
2022/10/02 13:37:58;;;;;;;5.63;2.13;;;17.80;99.90;;;;;;5048217;28;20625;-68
2022/10/02 13:40:30;;;;;;;4.00;1.80;;;17.50;99.90;;;;;;5047759;28;20277;-68
2022/10/02 13:43:26;;;;;;;4.83;1.87;;;17.10;99.90;;;;;;5047531;28;20599;-68
2022/10/02 13:46:02;;;;;;;2.67;1.57;;;17.00;99.90;;;;;;5047536;28;20207;-69
2022/10/02 13:48:41;;;;;;;3.27;1.73;;;16.90;99.90;;;;;;5047529;28;20629;-68
2022/10/02 13:51:18;;;;;;;2.43;1.70;;;17.00;99.90;;;;;;5047784;28;20203;-69
2022/10/02 13:54:06;;;;;;;3.83;1.90;;;17.20;99.90;;;;;;5047574;28;20204;-68
2022/10/02 13:56:48;;;;;;;3.03;1.40;;;17.60;99.90;;;;;;5047595;28;20211;-68
2022/10/02 13:59:34;;;;;;;4.23;1.43;;;17.70;99.90;;;;;;5047465;28;20224;-69
2022/10/02 14:02:22;;;;;;;3.80;1.80;;;17.80;99.90;;;;;;5046221;28;20249;-69
2022/10/02 14:04:59;;;;;;;2.80;1.30;;;18.20;99.90;;;;;;5027322;28;20196;-69
2022/10/02 14:07:51;;;;;;;2.07;1.17;;;18.30;99.90;;;;;;5028238;28;20203;-68
2022/10/02 14:10:34;;;;;;;2.30;1.30;;;18.40;99.90;;;;;;5019038;28;20489;-68
2022/10/02 14:13:15;;;;;;;4.20;1.57;;;18.20;99.90;;;;;;5047145;28;20236;-69
2022/10/02 14:16:01;;;;;;;4.40;1.43;;;18.10;99.90;;;;;;5046765;28;20196;-69